sensor_id;sensor_type;location;lat;lon;timestamp;temperature;humidity
51783;DHT22;37845;53.196;5.638;2023-05-17T00:00:09;9.70;99.90
51783;DHT22;37845;53.196;5.638;2023-05-17T00:02:38;9.70;99.90
51783;DHT22;37845;53.196;5.638;2023-05-17T00:05:04;9.60;99.90
51783;DHT22;37845;53.196;5.638;2023-05-17T00:07:34;9.70;99.90
51783;DHT22;37845;53.196;5.638;2023-05-17T00:09:59;9.60;99.90
51783;DHT22;37845;53.196;5.638;2023-05-17T00:12:25;9.60;99.90
51783;DHT22;37845;53.196;5.638;2023-05-17T00:14:51;9.60;99.90
51783;DHT22;37845;53.196;5.638;2023-05-17T00:17:22;9.60;99.90
51783;DHT22;37845;53.196;5.638;2023-05-17T00:19:47;9.60;99.90
51783;DHT22;37845;53.196;5.638;2023-05-17T00:22:13;9.60;99.90
51783;DHT22;37845;53.196;5.638;2023-05-17T00:24:39;9.60;99.90
51783;DHT22;37845;53.196;5.638;2023-05-17T00:27:04;9.60;99.90
51783;DHT22;37845;53.196;5.638;2023-05-17T00:29:30;9.60;99.90
51783;DHT22;37845;53.196;5.638;2023-05-17T00:31:59;9.60;99.90
51783;DHT22;37845;53.196;5.638;2023-05-17T00:34:25;9.60;99.90
51783;DHT22;37845;53.196;5.638;2023-05-17T00:36:50;9.50;99.90
51783;DHT22;37845;53.196;5.638;2023-05-17T00:39:16;9.50;99.90
51783;DHT22;37845;53.196;5.638;2023-05-17T00:41:41;9.50;99.90
51783;DHT22;37845;53.196;5.638;2023-05-17T00:44:07;9.50;99.90
51783;DHT22;37845;53.196;5.638;2023-05-17T00:46:33;9.40;99.90
51783;DHT22;37845;53.196;5.638;2023-05-17T00:49:01;9.50;99.90
51783;DHT22;37845;53.196;5.638;2023-05-17T00:51:27;9.50;99.90
51783;DHT22;37845;53.196;5.638;2023-05-17T00:53:53;9.40;99.90
51783;DHT22;37845;53.196;5.638;2023-05-17T00:56:19;9.50;99.90
51783;DHT22;37845;53.196;5.638;2023-05-17T00:58:44;9.50;99.90
51783;DHT22;37845;53.196;5.638;2023-05-17T01:01:11;9.40;99.90
51783;DHT22;37845;53.196;5.638;2023-05-17T01:03:46;9.40;99.90
51783;DHT22;37845;53.196;5.638;2023-05-17T01:06:12;9.40;99.90
51783;DHT22;37845;53.196;5.638;2023-05-17T01:08:37;9.40;99.90
51783;DHT22;37845;53.196;5.638;2023-05-17T01:14:24;9.30;99.90
51783;DHT22;37845;53.196;5.638;2023-05-17T01:16:39;9.30;99.90
51783;DHT22;37845;53.196;5.638;2023-05-17T01:24:26;9.20;99.90
51783;DHT22;37845;53.196;5.638;2023-05-17T01:26:53;9.30;99.90
51783;DHT22;37845;53.196;5.638;2023-05-17T01:29:21;9.30;99.90
51783;DHT22;37845;53.196;5.638;2023-05-17T01:31:47;9.20;99.90
51783;DHT22;37845;53.196;5.638;2023-05-17T01:34:15;9.70;99.90
51783;DHT22;37845;53.196;5.638;2023-05-17T01:36:48;9.30;99.90
51783;DHT22;37845;53.196;5.638;2023-05-17T01:39:13;9.30;99.90
51783;DHT22;37845;53.196;5.638;2023-05-17T01:41:39;9.30;99.90
51783;DHT22;37845;53.196;5.638;2023-05-17T01:47:03;9.50;99.90
51783;DHT22;37845;53.196;5.638;2023-05-17T01:49:34;9.40;99.90
51783;DHT22;37845;53.196;5.638;2023-05-17T01:56:58;9.40;99.90
51783;DHT22;37845;53.196;5.638;2023-05-17T01:59:25;9.30;99.90
51783;DHT22;37845;53.196;5.638;2023-05-17T02:01:59;9.30;99.90
51783;DHT22;37845;53.196;5.638;2023-05-17T02:04:32;9.20;99.90
51783;DHT22;37845;53.196;5.638;2023-05-17T02:06:57;9.20;99.90
51783;DHT22;37845;53.196;5.638;2023-05-17T02:09:23;9.20;99.90
51783;DHT22;37845;53.196;5.638;2023-05-17T02:11:49;9.20;99.90
51783;DHT22;37845;53.196;5.638;2023-05-17T02:14:14;9.20;99.90
51783;DHT22;37845;53.196;5.638;2023-05-17T02:16:40;9.10;99.90
51783;DHT22;37845;53.196;5.638;2023-05-17T02:19:06;9.10;99.90
51783;DHT22;37845;53.196;5.638;2023-05-17T02:21:36;9.10;99.90
51783;DHT22;37845;53.196;5.638;2023-05-17T02:24:10;9.10;99.90
51783;DHT22;37845;53.196;5.638;2023-05-17T02:26:36;9.00;99.90
51783;DHT22;37845;53.196;5.638;2023-05-17T02:29:02;9.00;99.90
51783;DHT22;37845;53.196;5.638;2023-05-17T02:31:28;9.00;99.90
51783;DHT22;37845;53.196;5.638;2023-05-17T02:33:54;9.00;99.90
51783;DHT22;37845;53.196;5.638;2023-05-17T02:36:20;9.00;99.90
51783;DHT22;37845;53.196;5.638;2023-05-17T02:38:48;9.00;99.90
51783;DHT22;37845;53.196;5.638;2023-05-17T02:41:14;9.00;99.90
51783;DHT22;37845;53.196;5.638;2023-05-17T02:43:40;9.00;99.90
51783;DHT22;37845;53.196;5.638;2023-05-17T02:46:06;9.00;99.90
51783;DHT22;37845;53.196;5.638;2023-05-17T02:48:31;9.00;99.90
51783;DHT22;37845;53.196;5.638;2023-05-17T02:51:47;9.30;99.90
51783;DHT22;37845;53.196;5.638;2023-05-17T02:54:13;9.10;99.90
51783;DHT22;37845;53.196;5.638;2023-05-17T02:56:38;9.10;99.90
51783;DHT22;37845;53.196;5.638;2023-05-17T02:59:05;9.10;99.90
51783;DHT22;37845;53.196;5.638;2023-05-17T03:01:31;9.10;99.90
51783;DHT22;37845;53.196;5.638;2023-05-17T03:03:56;9.00;99.90
51783;DHT22;37845;53.196;5.638;2023-05-17T03:06:22;9.00;99.90
51783;DHT22;37845;53.196;5.638;2023-05-17T03:08:47;9.00;99.90
51783;DHT22;37845;53.196;5.638;2023-05-17T03:11:13;9.00;99.90
51783;DHT22;37845;53.196;5.638;2023-05-17T03:13:38;9.00;99.90
51783;DHT22;37845;53.196;5.638;2023-05-17T03:16:05;9.00;99.90
51783;DHT22;37845;53.196;5.638;2023-05-17T03:18:31;9.00;99.90
51783;DHT22;37845;53.196;5.638;2023-05-17T03:20:56;8.90;99.90
51783;DHT22;37845;53.196;5.638;2023-05-17T03:23:22;8.90;99.90
51783;DHT22;37845;53.196;5.638;2023-05-17T03:25:50;8.90;99.90
51783;DHT22;37845;53.196;5.638;2023-05-17T03:28:16;8.90;99.90
51783;DHT22;37845;53.196;5.638;2023-05-17T03:30:42;9.70;99.90
51783;DHT22;37845;53.196;5.638;2023-05-17T03:33:07;8.80;99.90
51783;DHT22;37845;53.196;5.638;2023-05-17T03:35:33;8.70;99.90
51783;DHT22;37845;53.196;5.638;2023-05-17T03:37:58;8.70;99.90
51783;DHT22;37845;53.196;5.638;2023-05-17T03:40:24;8.70;99.90
51783;DHT22;37845;53.196;5.638;2023-05-17T03:42:50;9.10;99.90
51783;DHT22;37845;53.196;5.638;2023-05-17T03:45:16;8.70;99.90
51783;DHT22;37845;53.196;5.638;2023-05-17T03:47:42;8.70;99.90
51783;DHT22;37845;53.196;5.638;2023-05-17T03:50:08;8.70;99.90
51783;DHT22;37845;53.196;5.638;2023-05-17T03:52:34;8.70;99.90
51783;DHT22;37845;53.196;5.638;2023-05-17T03:54:59;8.60;99.90
51783;DHT22;37845;53.196;5.638;2023-05-17T03:57:28;8.70;99.90
51783;DHT22;37845;53.196;5.638;2023-05-17T03:59:53;8.70;99.90
51783;DHT22;37845;53.196;5.638;2023-05-17T04:02:19;8.60;99.90
51783;DHT22;37845;53.196;5.638;2023-05-17T04:04:48;8.70;99.90
51783;DHT22;37845;53.196;5.638;2023-05-17T04:07:14;8.70;99.90
51783;DHT22;37845;53.196;5.638;2023-05-17T04:09:43;8.70;99.90
51783;DHT22;37845;53.196;5.638;2023-05-17T04:12:09;8.70;99.90
51783;DHT22;37845;53.196;5.638;2023-05-17T04:14:37;8.70;99.90
51783;DHT22;37845;53.196;5.638;2023-05-17T04:17:03;8.70;99.90
51783;DHT22;37845;53.196;5.638;2023-05-17T04:22:27;8.70;99.90
51783;DHT22;37845;53.196;5.638;2023-05-17T04:24:52;8.60;99.90
51783;DHT22;37845;53.196;5.638;2023-05-17T04:27:18;8.60;99.90
51783;DHT22;37845;53.196;5.638;2023-05-17T04:29:43;8.60;99.90
51783;DHT22;37845;53.196;5.638;2023-05-17T04:32:09;8.50;99.90
51783;DHT22;37845;53.196;5.638;2023-05-17T04:34:35;8.50;99.90
51783;DHT22;37845;53.196;5.638;2023-05-17T04:37:00;8.40;99.90
51783;DHT22;37845;53.196;5.638;2023-05-17T04:39:26;8.50;99.90
51783;DHT22;37845;53.196;5.638;2023-05-17T04:41:55;8.40;99.90
51783;DHT22;37845;53.196;5.638;2023-05-17T04:44:26;8.70;99.90
51783;DHT22;37845;53.196;5.638;2023-05-17T04:46:54;8.50;99.90
51783;DHT22;37845;53.196;5.638;2023-05-17T04:49:20;8.50;99.90
51783;DHT22;37845;53.196;5.638;2023-05-17T04:51:46;8.50;99.90
51783;DHT22;37845;53.196;5.638;2023-05-17T04:54:11;8.60;99.90
51783;DHT22;37845;53.196;5.638;2023-05-17T04:56:37;8.60;99.90
51783;DHT22;37845;53.196;5.638;2023-05-17T04:59:02;8.70;99.90
51783;DHT22;37845;53.196;5.638;2023-05-17T05:01:28;8.60;99.90
51783;DHT22;37845;53.196;5.638;2023-05-17T05:03:55;8.60;99.90
51783;DHT22;37845;53.196;5.638;2023-05-17T05:06:21;8.60;99.90
51783;DHT22;37845;53.196;5.638;2023-05-17T05:08:47;8.60;99.90
51783;DHT22;37845;53.196;5.638;2023-05-17T05:11:13;8.60;99.90
51783;DHT22;37845;53.196;5.638;2023-05-17T05:13:38;8.60;99.90
51783;DHT22;37845;53.196;5.638;2023-05-17T05:16:06;8.70;99.90
51783;DHT22;37845;53.196;5.638;2023-05-17T05:18:40;8.70;99.90
51783;DHT22;37845;53.196;5.638;2023-05-17T05:21:06;8.70;99.90
51783;DHT22;37845;53.196;5.638;2023-05-17T05:23:34;8.70;99.90
51783;DHT22;37845;53.196;5.638;2023-05-17T05:26:00;8.70;99.90
51783;DHT22;37845;53.196;5.638;2023-05-17T05:28:26;8.70;99.90
51783;DHT22;37845;53.196;5.638;2023-05-17T05:30:58;8.70;99.90
51783;DHT22;37845;53.196;5.638;2023-05-17T05:33:24;8.70;99.90
51783;DHT22;37845;53.196;5.638;2023-05-17T05:35:51;8.80;99.90
51783;DHT22;37845;53.196;5.638;2023-05-17T05:38:16;8.80;99.90
51783;DHT22;37845;53.196;5.638;2023-05-17T05:40:42;8.90;99.90
51783;DHT22;37845;53.196;5.638;2023-05-17T05:43:10;8.90;99.90
51783;DHT22;37845;53.196;5.638;2023-05-17T05:45:35;8.90;99.90
51783;DHT22;37845;53.196;5.638;2023-05-17T05:48:04;8.90;99.90
51783;DHT22;37845;53.196;5.638;2023-05-17T05:50:33;9.00;99.90
51783;DHT22;37845;53.196;5.638;2023-05-17T05:52:59;9.00;99.90
51783;DHT22;37845;53.196;5.638;2023-05-17T05:55:30;9.20;99.90
51783;DHT22;37845;53.196;5.638;2023-05-17T05:57:59;9.10;99.90
51783;DHT22;37845;53.196;5.638;2023-05-17T06:00:24;9.10;99.90
51783;DHT22;37845;53.196;5.638;2023-05-17T06:02:50;9.10;99.90
51783;DHT22;37845;53.196;5.638;2023-05-17T06:05:17;9.10;99.90
51783;DHT22;37845;53.196;5.638;2023-05-17T06:07:55;9.10;99.90
51783;DHT22;37845;53.196;5.638;2023-05-17T06:10:20;9.20;99.90
51783;DHT22;37845;53.196;5.638;2023-05-17T06:12:46;9.30;99.90
51783;DHT22;37845;53.196;5.638;2023-05-17T06:15:12;9.40;99.90
51783;DHT22;37845;53.196;5.638;2023-05-17T06:17:38;9.40;99.90
51783;DHT22;37845;53.196;5.638;2023-05-17T06:20:06;9.40;99.90
51783;DHT22;37845;53.196;5.638;2023-05-17T06:22:42;9.50;99.90
51783;DHT22;37845;53.196;5.638;2023-05-17T06:25:08;9.50;99.90
51783;DHT22;37845;53.196;5.638;2023-05-17T06:27:35;9.50;99.90
51783;DHT22;37845;53.196;5.638;2023-05-17T06:30:01;9.60;99.90
51783;DHT22;37845;53.196;5.638;2023-05-17T06:32:29;9.60;99.90
51783;DHT22;37845;53.196;5.638;2023-05-17T06:34:55;9.80;99.90
51783;DHT22;37845;53.196;5.638;2023-05-17T06:37:23;9.90;99.90
51783;DHT22;37845;53.196;5.638;2023-05-17T06:39:49;10.00;99.90
51783;DHT22;37845;53.196;5.638;2023-05-17T06:42:15;10.10;99.90
51783;DHT22;37845;53.196;5.638;2023-05-17T06:44:41;10.10;99.90
51783;DHT22;37845;53.196;5.638;2023-05-17T06:47:07;10.10;99.90
51783;DHT22;37845;53.196;5.638;2023-05-17T06:49:33;10.20;99.90
51783;DHT22;37845;53.196;5.638;2023-05-17T06:51:58;10.10;99.90
51783;DHT22;37845;53.196;5.638;2023-05-17T06:54:33;10.00;99.90
51783;DHT22;37845;53.196;5.638;2023-05-17T06:57:00;9.90;99.90
51783;DHT22;37845;53.196;5.638;2023-05-17T07:06:22;10.10;99.90
51783;DHT22;37845;53.196;5.638;2023-05-17T07:08:47;10.10;99.90
51783;DHT22;37845;53.196;5.638;2023-05-17T07:11:37;10.00;99.90
51783;DHT22;37845;53.196;5.638;2023-05-17T07:17:01;10.20;99.90
51783;DHT22;37845;53.196;5.638;2023-05-17T07:19:27;11.40;99.90
51783;DHT22;37845;53.196;5.638;2023-05-17T07:24:48;10.10;99.90
51783;DHT22;37845;53.196;5.638;2023-05-17T07:30:01;10.10;99.90
51783;DHT22;37845;53.196;5.638;2023-05-17T07:38:48;11.00;99.90
51783;DHT22;37845;53.196;5.638;2023-05-17T07:43:44;10.10;99.90
51783;DHT22;37845;53.196;5.638;2023-05-17T07:46:09;10.90;99.90
51783;DHT22;37845;53.196;5.638;2023-05-17T07:48:38;10.80;99.90
51783;DHT22;37845;53.196;5.638;2023-05-17T07:51:03;10.90;99.90
51783;DHT22;37845;53.196;5.638;2023-05-17T07:53:29;10.70;99.90
51783;DHT22;37845;53.196;5.638;2023-05-17T07:55:54;10.90;99.90
51783;DHT22;37845;53.196;5.638;2023-05-17T08:01:09;10.90;99.90
51783;DHT22;37845;53.196;5.638;2023-05-17T08:03:35;10.70;99.90
51783;DHT22;37845;53.196;5.638;2023-05-17T08:11:13;10.20;99.90
51783;DHT22;37845;53.196;5.638;2023-05-17T08:21:24;10.70;99.90
51783;DHT22;37845;53.196;5.638;2023-05-17T08:23:50;10.70;99.90
51783;DHT22;37845;53.196;5.638;2023-05-17T08:28:51;10.50;99.90
51783;DHT22;37845;53.196;5.638;2023-05-17T08:34:30;10.90;99.90
51783;DHT22;37845;53.196;5.638;2023-05-17T08:36:56;11.00;99.90
51783;DHT22;37845;53.196;5.638;2023-05-17T08:39:22;10.80;99.90
51783;DHT22;37845;53.196;5.638;2023-05-17T08:41:47;10.80;99.90
51783;DHT22;37845;53.196;5.638;2023-05-17T08:44:13;10.90;99.90
51783;DHT22;37845;53.196;5.638;2023-05-17T08:54:22;10.50;99.90
51783;DHT22;37845;53.196;5.638;2023-05-17T08:56:48;10.70;99.90
51783;DHT22;37845;53.196;5.638;2023-05-17T08:59:19;10.70;99.90
51783;DHT22;37845;53.196;5.638;2023-05-17T09:01:46;10.80;99.90
51783;DHT22;37845;53.196;5.638;2023-05-17T09:04:12;10.80;99.90
51783;DHT22;37845;53.196;5.638;2023-05-17T09:06:38;10.90;99.90
51783;DHT22;37845;53.196;5.638;2023-05-17T09:09:07;11.00;99.90
51783;DHT22;37845;53.196;5.638;2023-05-17T09:11:36;11.00;99.90
51783;DHT22;37845;53.196;5.638;2023-05-17T09:14:06;11.00;99.90
51783;DHT22;37845;53.196;5.638;2023-05-17T09:16:35;11.10;99.90
51783;DHT22;37845;53.196;5.638;2023-05-17T09:19:02;11.10;99.90
51783;DHT22;37845;53.196;5.638;2023-05-17T09:21:28;11.20;99.90
51783;DHT22;37845;53.196;5.638;2023-05-17T09:23:56;11.40;99.90
51783;DHT22;37845;53.196;5.638;2023-05-17T09:26:23;11.50;99.90
51783;DHT22;37845;53.196;5.638;2023-05-17T09:28:49;11.60;99.90
51783;DHT22;37845;53.196;5.638;2023-05-17T09:31:16;11.60;99.90
51783;DHT22;37845;53.196;5.638;2023-05-17T09:33:43;11.70;99.90
51783;DHT22;37845;53.196;5.638;2023-05-17T09:36:19;11.80;99.90
51783;DHT22;37845;53.196;5.638;2023-05-17T09:38:56;12.00;99.90
51783;DHT22;37845;53.196;5.638;2023-05-17T09:41:30;12.10;99.90
51783;DHT22;37845;53.196;5.638;2023-05-17T09:43:58;12.20;99.90
51783;DHT22;37845;53.196;5.638;2023-05-17T09:46:25;12.30;99.90
51783;DHT22;37845;53.196;5.638;2023-05-17T09:49:09;12.30;99.90
51783;DHT22;37845;53.196;5.638;2023-05-17T09:51:36;12.10;99.90
51783;DHT22;37845;53.196;5.638;2023-05-17T09:54:02;12.10;99.90
51783;DHT22;37845;53.196;5.638;2023-05-17T09:56:28;12.10;99.90
51783;DHT22;37845;53.196;5.638;2023-05-17T09:58:54;12.10;99.90
51783;DHT22;37845;53.196;5.638;2023-05-17T10:01:20;12.10;99.90
51783;DHT22;37845;53.196;5.638;2023-05-17T10:03:46;11.70;99.90
51783;DHT22;37845;53.196;5.638;2023-05-17T10:06:13;12.20;99.90
51783;DHT22;37845;53.196;5.638;2023-05-17T10:08:41;12.20;99.90
51783;DHT22;37845;53.196;5.638;2023-05-17T10:11:09;12.20;99.90
51783;DHT22;37845;53.196;5.638;2023-05-17T10:13:36;12.30;99.90
51783;DHT22;37845;53.196;5.638;2023-05-17T10:16:05;12.30;99.90
51783;DHT22;37845;53.196;5.638;2023-05-17T10:18:31;12.10;99.90
51783;DHT22;37845;53.196;5.638;2023-05-17T10:21:00;12.30;99.90
51783;DHT22;37845;53.196;5.638;2023-05-17T10:23:27;13.30;99.90
51783;DHT22;37845;53.196;5.638;2023-05-17T10:25:53;12.30;99.90
51783;DHT22;37845;53.196;5.638;2023-05-17T10:28:19;12.20;99.90
51783;DHT22;37845;53.196;5.638;2023-05-17T10:30:45;12.20;99.90
51783;DHT22;37845;53.196;5.638;2023-05-17T10:36:42;11.20;99.90
51783;DHT22;37845;53.196;5.638;2023-05-17T10:39:08;12.40;99.90
51783;DHT22;37845;53.196;5.638;2023-05-17T10:41:34;12.70;99.90
51783;DHT22;37845;53.196;5.638;2023-05-17T10:44:02;12.50;99.90
51783;DHT22;37845;53.196;5.638;2023-05-17T10:46:29;12.40;99.90
51783;DHT22;37845;53.196;5.638;2023-05-17T10:48:55;12.30;99.90
51783;DHT22;37845;53.196;5.638;2023-05-17T10:51:25;12.30;99.90
51783;DHT22;37845;53.196;5.638;2023-05-17T10:54:10;12.20;99.90
51783;DHT22;37845;53.196;5.638;2023-05-17T10:59:14;12.10;99.90
51783;DHT22;37845;53.196;5.638;2023-05-17T11:06:51;12.10;99.90
51783;DHT22;37845;53.196;5.638;2023-05-17T11:09:17;12.20;99.90
51783;DHT22;37845;53.196;5.638;2023-05-17T11:14:54;12.10;99.90
51783;DHT22;37845;53.196;5.638;2023-05-17T11:17:24;11.80;99.90
51783;DHT22;37845;53.196;5.638;2023-05-17T11:22:35;13.30;99.90
51783;DHT22;37845;53.196;5.638;2023-05-17T11:25:12;12.40;99.90
51783;DHT22;37845;53.196;5.638;2023-05-17T11:32:52;12.10;99.90
51783;DHT22;37845;53.196;5.638;2023-05-17T11:35:21;12.00;99.90
51783;DHT22;37845;53.196;5.638;2023-05-17T11:38:10;12.00;99.90
51783;DHT22;37845;53.196;5.638;2023-05-17T11:40:37;12.00;99.90
51783;DHT22;37845;53.196;5.638;2023-05-17T11:43:10;12.10;99.90
51783;DHT22;37845;53.196;5.638;2023-05-17T11:48:08;12.30;99.90
51783;DHT22;37845;53.196;5.638;2023-05-17T11:50:35;12.40;99.90
51783;DHT22;37845;53.196;5.638;2023-05-17T11:53:02;12.50;99.90
51783;DHT22;37845;53.196;5.638;2023-05-17T11:55:47;12.50;99.90
51783;DHT22;37845;53.196;5.638;2023-05-17T11:58:18;12.40;99.90
51783;DHT22;37845;53.196;5.638;2023-05-17T12:00:43;12.60;99.90
51783;DHT22;37845;53.196;5.638;2023-05-17T12:03:19;12.60;99.90
51783;DHT22;37845;53.196;5.638;2023-05-17T12:05:51;12.70;99.90
51783;DHT22;37845;53.196;5.638;2023-05-17T12:08:25;12.80;99.90
51783;DHT22;37845;53.196;5.638;2023-05-17T12:10:51;13.00;99.90
51783;DHT22;37845;53.196;5.638;2023-05-17T12:13:17;13.50;99.90
51783;DHT22;37845;53.196;5.638;2023-05-17T12:15:44;13.40;99.90
51783;DHT22;37845;53.196;5.638;2023-05-17T12:18:10;13.30;99.90
51783;DHT22;37845;53.196;5.638;2023-05-17T12:20:36;13.20;99.90
51783;DHT22;37845;53.196;5.638;2023-05-17T12:23:03;13.20;99.90
51783;DHT22;37845;53.196;5.638;2023-05-17T12:25:29;13.30;99.90
51783;DHT22;37845;53.196;5.638;2023-05-17T12:30:39;13.10;99.90
51783;DHT22;37845;53.196;5.638;2023-05-17T12:33:05;13.40;99.90
51783;DHT22;37845;53.196;5.638;2023-05-17T12:35:31;13.40;99.90
51783;DHT22;37845;53.196;5.638;2023-05-17T12:37:57;13.30;99.90
51783;DHT22;37845;53.196;5.638;2023-05-17T12:40:23;13.50;99.90
51783;DHT22;37845;53.196;5.638;2023-05-17T12:42:52;13.00;99.90
51783;DHT22;37845;53.196;5.638;2023-05-17T12:45:28;13.50;99.90
51783;DHT22;37845;53.196;5.638;2023-05-17T12:47:53;13.70;99.90
51783;DHT22;37845;53.196;5.638;2023-05-17T12:50:31;13.80;99.90
51783;DHT22;37845;53.196;5.638;2023-05-17T12:53:09;13.70;99.90
51783;DHT22;37845;53.196;5.638;2023-05-17T12:55:42;13.90;99.90
51783;DHT22;37845;53.196;5.638;2023-05-17T12:58:08;13.80;99.90
51783;DHT22;37845;53.196;5.638;2023-05-17T13:00:36;13.80;99.90
51783;DHT22;37845;53.196;5.638;2023-05-17T13:03:07;13.70;99.90
51783;DHT22;37845;53.196;5.638;2023-05-17T13:05:33;13.40;99.90
51783;DHT22;37845;53.196;5.638;2023-05-17T13:08:17;13.70;99.90
51783;DHT22;37845;53.196;5.638;2023-05-17T13:10:42;13.80;99.90
51783;DHT22;37845;53.196;5.638;2023-05-17T13:13:08;13.60;99.90
51783;DHT22;37845;53.196;5.638;2023-05-17T13:15:44;13.50;99.90
51783;DHT22;37845;53.196;5.638;2023-05-17T13:18:13;13.80;99.90
51783;DHT22;37845;53.196;5.638;2023-05-17T13:20:43;13.90;99.90
51783;DHT22;37845;53.196;5.638;2023-05-17T13:23:09;13.20;99.90
51783;DHT22;37845;53.196;5.638;2023-05-17T13:25:35;13.60;99.90
51783;DHT22;37845;53.196;5.638;2023-05-17T13:28:03;13.60;99.30
51783;DHT22;37845;53.196;5.638;2023-05-17T13:30:32;13.80;99.90
51783;DHT22;37845;53.196;5.638;2023-05-17T13:32:57;13.90;99.90
51783;DHT22;37845;53.196;5.638;2023-05-17T13:35:23;13.90;99.90
51783;DHT22;37845;53.196;5.638;2023-05-17T13:37:49;13.90;99.90
51783;DHT22;37845;53.196;5.638;2023-05-17T13:40:14;14.10;99.90
51783;DHT22;37845;53.196;5.638;2023-05-17T13:42:43;13.80;99.30
51783;DHT22;37845;53.196;5.638;2023-05-17T13:45:09;13.70;99.50
51783;DHT22;37845;53.196;5.638;2023-05-17T13:47:36;13.50;99.40
51783;DHT22;37845;53.196;5.638;2023-05-17T13:50:01;13.30;99.30
51783;DHT22;37845;53.196;5.638;2023-05-17T13:52:28;13.30;99.40
51783;DHT22;37845;53.196;5.638;2023-05-17T13:54:54;13.20;99.90
51783;DHT22;37845;53.196;5.638;2023-05-17T13:57:20;13.20;99.80
51783;DHT22;37845;53.196;5.638;2023-05-17T13:59:46;13.40;99.90
51783;DHT22;37845;53.196;5.638;2023-05-17T14:02:11;13.30;99.10
51783;DHT22;37845;53.196;5.638;2023-05-17T14:04:37;13.40;99.50
51783;DHT22;37845;53.196;5.638;2023-05-17T14:07:05;13.50;99.40
51783;DHT22;37845;53.196;5.638;2023-05-17T14:09:31;13.70;99.30
51783;DHT22;37845;53.196;5.638;2023-05-17T14:11:59;13.70;98.90
51783;DHT22;37845;53.196;5.638;2023-05-17T14:14:25;13.80;99.20
51783;DHT22;37845;53.196;5.638;2023-05-17T14:16:58;13.80;98.90
51783;DHT22;37845;53.196;5.638;2023-05-17T14:19:25;13.60;99.50
51783;DHT22;37845;53.196;5.638;2023-05-17T14:21:51;13.70;99.70
51783;DHT22;37845;53.196;5.638;2023-05-17T14:24:16;13.40;99.80
51783;DHT22;37845;53.196;5.638;2023-05-17T14:26:42;13.50;99.90
51783;DHT22;37845;53.196;5.638;2023-05-17T14:29:11;13.30;99.90
51783;DHT22;37845;53.196;5.638;2023-05-17T14:31:39;13.10;99.90
51783;DHT22;37845;53.196;5.638;2023-05-17T14:34:05;13.10;99.90
51783;DHT22;37845;53.196;5.638;2023-05-17T14:36:34;13.10;99.90
51783;DHT22;37845;53.196;5.638;2023-05-17T14:39:01;13.80;99.90
51783;DHT22;37845;53.196;5.638;2023-05-17T14:41:26;13.10;99.90
51783;DHT22;37845;53.196;5.638;2023-05-17T14:43:52;13.00;99.90
51783;DHT22;37845;53.196;5.638;2023-05-17T14:46:17;13.10;99.90
51783;DHT22;37845;53.196;5.638;2023-05-17T14:48:43;13.00;99.90
51783;DHT22;37845;53.196;5.638;2023-05-17T14:51:09;12.90;99.90
51783;DHT22;37845;53.196;5.638;2023-05-17T14:53:35;13.00;99.90
51783;DHT22;37845;53.196;5.638;2023-05-17T14:56:00;12.90;99.90
51783;DHT22;37845;53.196;5.638;2023-05-17T14:58:26;13.00;99.90
51783;DHT22;37845;53.196;5.638;2023-05-17T15:00:52;13.00;99.90
51783;DHT22;37845;53.196;5.638;2023-05-17T15:03:24;12.80;99.90
51783;DHT22;37845;53.196;5.638;2023-05-17T15:08:26;11.90;99.90
51783;DHT22;37845;53.196;5.638;2023-05-17T15:10:51;12.70;99.90
51783;DHT22;37845;53.196;5.638;2023-05-17T15:13:18;12.80;99.90
51783;DHT22;37845;53.196;5.638;2023-05-17T15:15:44;12.80;99.90
51783;DHT22;37845;53.196;5.638;2023-05-17T15:18:11;12.70;99.90
51783;DHT22;37845;53.196;5.638;2023-05-17T15:20:38;12.70;99.90
51783;DHT22;37845;53.196;5.638;2023-05-17T15:23:03;12.80;99.90
51783;DHT22;37845;53.196;5.638;2023-05-17T15:25:30;13.00;99.90
51783;DHT22;37845;53.196;5.638;2023-05-17T15:27:56;13.10;99.90
51783;DHT22;37845;53.196;5.638;2023-05-17T15:30:22;13.10;99.90
51783;DHT22;37845;53.196;5.638;2023-05-17T15:32:57;13.20;99.90
51783;DHT22;37845;53.196;5.638;2023-05-17T15:35:23;13.20;99.90
51783;DHT22;37845;53.196;5.638;2023-05-17T15:37:50;13.10;99.80
51783;DHT22;37845;53.196;5.638;2023-05-17T15:40:16;12.90;99.90
51783;DHT22;37845;53.196;5.638;2023-05-17T15:42:43;12.80;99.90
51783;DHT22;37845;53.196;5.638;2023-05-17T15:45:08;12.60;99.90
51783;DHT22;37845;53.196;5.638;2023-05-17T15:47:35;12.70;99.90
51783;DHT22;37845;53.196;5.638;2023-05-17T15:50:01;12.80;99.90
51783;DHT22;37845;53.196;5.638;2023-05-17T15:52:27;12.90;99.90
51783;DHT22;37845;53.196;5.638;2023-05-17T15:55:11;12.90;99.90
51783;DHT22;37845;53.196;5.638;2023-05-17T15:57:40;12.80;99.90
51783;DHT22;37845;53.196;5.638;2023-05-17T16:00:06;13.20;99.90
51783;DHT22;37845;53.196;5.638;2023-05-17T16:02:32;12.90;99.90
51783;DHT22;37845;53.196;5.638;2023-05-17T16:04:58;12.80;99.90
51783;DHT22;37845;53.196;5.638;2023-05-17T16:07:29;12.80;99.90
51783;DHT22;37845;53.196;5.638;2023-05-17T16:09:55;12.80;99.90
51783;DHT22;37845;53.196;5.638;2023-05-17T16:12:21;12.70;99.90
51783;DHT22;37845;53.196;5.638;2023-05-17T16:14:46;12.60;99.90
51783;DHT22;37845;53.196;5.638;2023-05-17T16:17:12;12.80;99.90
51783;DHT22;37845;53.196;5.638;2023-05-17T16:19:38;12.90;99.70
51783;DHT22;37845;53.196;5.638;2023-05-17T16:22:03;13.00;99.50
51783;DHT22;37845;53.196;5.638;2023-05-17T16:24:29;13.20;99.70
51783;DHT22;37845;53.196;5.638;2023-05-17T16:27:00;13.20;99.30
51783;DHT22;37845;53.196;5.638;2023-05-17T16:29:27;13.20;99.70
51783;DHT22;37845;53.196;5.638;2023-05-17T16:31:52;12.30;99.20
51783;DHT22;37845;53.196;5.638;2023-05-17T16:34:18;13.00;99.20
51783;DHT22;37845;53.196;5.638;2023-05-17T16:36:44;13.10;99.20
51783;DHT22;37845;53.196;5.638;2023-05-17T16:39:12;13.30;99.50
51783;DHT22;37845;53.196;5.638;2023-05-17T16:41:37;13.40;99.50
51783;DHT22;37845;53.196;5.638;2023-05-17T16:44:03;13.50;98.80
51783;DHT22;37845;53.196;5.638;2023-05-17T16:46:29;13.30;98.70
51783;DHT22;37845;53.196;5.638;2023-05-17T16:48:55;13.00;98.90
51783;DHT22;37845;53.196;5.638;2023-05-17T16:51:20;13.00;99.60
51783;DHT22;37845;53.196;5.638;2023-05-17T16:53:46;12.90;99.90
51783;DHT22;37845;53.196;5.638;2023-05-17T16:56:12;12.80;99.90
51783;DHT22;37845;53.196;5.638;2023-05-17T16:58:41;12.70;99.70
51783;DHT22;37845;53.196;5.638;2023-05-17T17:01:07;12.60;99.90
51783;DHT22;37845;53.196;5.638;2023-05-17T17:03:32;13.50;99.90
51783;DHT22;37845;53.196;5.638;2023-05-17T17:05:58;12.60;99.90
51783;DHT22;37845;53.196;5.638;2023-05-17T17:08:23;12.60;99.90
51783;DHT22;37845;53.196;5.638;2023-05-17T17:10:49;12.60;99.90
51783;DHT22;37845;53.196;5.638;2023-05-17T17:13:15;12.50;99.90
51783;DHT22;37845;53.196;5.638;2023-05-17T17:15:41;12.60;99.90
51783;DHT22;37845;53.196;5.638;2023-05-17T17:18:07;12.60;99.90
51783;DHT22;37845;53.196;5.638;2023-05-17T17:20:32;12.50;99.90